createdAt,value
2023-10-09T00:02:45.424Z,64.51
2023-10-09T00:05:48.411Z,64.63
2023-10-09T00:08:52.583Z,64.91
2023-10-09T00:11:58.490Z,65.70
2023-10-09T00:15:11.874Z,65.80
2023-10-09T00:18:15.779Z,65.85
2023-10-09T00:21:21.704Z,66.00
2023-10-09T00:24:25.361Z,66.41
2023-10-09T00:27:32.767Z,66.49
2023-10-09T00:30:36.897Z,66.32
2023-10-09T00:33:39.899Z,66.60
2023-10-09T00:36:51.794Z,66.86
2023-10-09T00:39:58.293Z,66.81
2023-10-09T00:43:07.537Z,67.29
2023-10-09T00:46:13.674Z,67.33
2023-10-09T00:49:17.212Z,67.25
2023-10-09T00:52:28.692Z,67.34
2023-10-09T00:55:44.681Z,67.61
2023-10-09T00:58:56.562Z,67.84
2023-10-09T01:02:06.406Z,67.99
2023-10-09T01:05:20.333Z,68.25
2023-10-09T01:08:31.826Z,68.31
2023-10-09T01:11:35.763Z,68.50
2023-10-09T01:14:39.063Z,68.60
2023-10-09T01:17:46.833Z,68.70
2023-10-09T01:20:50.492Z,68.55
2023-10-09T01:24:03.997Z,68.70
2023-10-09T01:27:16.976Z,68.69
2023-10-09T01:30:21.410Z,68.65
2023-10-09T01:33:28.893Z,68.56
2023-10-09T01:36:35.390Z,68.43
2023-10-09T01:39:43.564Z,68.42
2023-10-09T01:42:47.233Z,68.32
2023-10-09T01:45:53.297Z,68.49
2023-10-09T01:48:56.221Z,68.58
2023-10-09T01:52:09.173Z,68.79
2023-10-09T01:55:29.038Z,68.69
2023-10-09T01:58:33.612Z,68.66
2023-10-09T02:01:42.210Z,68.61
2023-10-09T02:04:46.303Z,68.49
2023-10-09T02:07:54.818Z,68.42
2023-10-09T02:10:57.815Z,68.38
2023-10-09T02:14:02.121Z,68.59
2023-10-09T02:17:10.910Z,68.74
2023-10-09T02:20:29.769Z,68.64
2023-10-09T02:23:40.623Z,68.52
2023-10-09T02:26:52.279Z,68.43
2023-10-09T02:29:57.722Z,68.69
2023-10-09T02:33:08.239Z,68.48
2023-10-09T02:36:14.414Z,68.64
2023-10-09T02:39:27.582Z,68.53
2023-10-09T02:42:30.759Z,68.47
2023-10-09T02:45:36.240Z,68.52
2023-10-09T02:48:43.836Z,68.43
2023-10-09T02:51:54.334Z,68.48
2023-10-09T02:55:00.911Z,68.38
2023-10-09T02:58:09.012Z,68.13
2023-10-09T03:01:15.812Z,68.46
2023-10-09T03:04:20.719Z,68.43
2023-10-09T03:07:24.747Z,68.43
2023-10-09T03:10:27.813Z,68.48
2023-10-09T03:13:34.310Z,68.45
2023-10-09T03:16:37.830Z,68.33
2023-10-09T03:19:44.972Z,68.56
2023-10-09T03:22:49.373Z,68.47
2023-10-09T03:25:52.247Z,68.32
2023-10-09T03:28:55.586Z,68.20
2023-10-09T03:31:58.667Z,68.21
2023-10-09T03:35:04.272Z,68.34
2023-10-09T03:38:18.407Z,68.22
2023-10-09T03:41:21.781Z,68.31
2023-10-09T03:44:24.736Z,68.31
2023-10-09T03:47:28.876Z,68.45
2023-10-09T03:50:37.087Z,68.19
2023-10-09T03:53:40.814Z,68.66
2023-10-09T03:56:43.863Z,68.48
2023-10-09T03:59:48.069Z,68.45
2023-10-09T04:02:51.967Z,68.70
2023-10-09T04:05:55.023Z,68.81
2023-10-09T04:09:28.933Z,68.78
2023-10-09T04:12:32.432Z,68.70
2023-10-09T04:15:36.991Z,68.88
2023-10-09T04:18:41.206Z,68.82
2023-10-09T04:21:44.300Z,68.99
2023-10-09T04:24:49.618Z,68.89
2023-10-09T04:28:18.790Z,69.00
2023-10-09T04:31:23.474Z,69.24
2023-10-09T04:34:35.862Z,69.41
2023-10-09T04:37:39.034Z,69.33
2023-10-09T04:40:41.890Z,69.42
2023-10-09T04:43:45.874Z,69.73
2023-10-09T04:47:20.055Z,69.93
2023-10-09T04:50:31.903Z,69.88
2023-10-09T04:53:45.269Z,70.07
2023-10-09T04:56:54.394Z,70.00
2023-10-09T04:59:59.760Z,70.35
2023-10-09T05:03:14.366Z,70.47
2023-10-09T05:06:36.337Z,70.55
2023-10-09T05:09:57.093Z,70.64
2023-10-09T05:13:00.127Z,70.62
2023-10-09T05:16:04.180Z,70.61
2023-10-09T05:19:08.095Z,70.78
2023-10-09T05:22:30.381Z,70.98
2023-10-09T05:25:52.040Z,71.00
2023-10-09T05:28:59.531Z,70.90
2023-10-09T05:32:16.844Z,70.86
2023-10-09T05:35:31.107Z,71.16
2023-10-09T05:38:37.209Z,70.92
2023-10-09T05:42:01.101Z,70.96
2023-10-09T05:45:18.238Z,71.09
2023-10-09T05:48:21.527Z,70.97
2023-10-09T05:51:43.189Z,71.09
2023-10-09T05:55:04.756Z,71.38
2023-10-09T05:58:10.341Z,70.94
2023-10-09T06:01:31.673Z,71.15
2023-10-09T06:04:56.016Z,71.31
2023-10-09T06:08:08.614Z,70.98
2023-10-09T06:11:48.885Z,71.15
2023-10-09T06:14:58.999Z,71.03
2023-10-09T06:18:22.200Z,71.20
2023-10-09T06:21:41.839Z,71.20
2023-10-09T06:24:53.930Z,71.32
2023-10-09T06:27:59.815Z,71.26
2023-10-09T06:31:22.933Z,71.35
2023-10-09T06:34:36.453Z,71.36
2023-10-09T06:37:59.568Z,71.62
2023-10-09T06:41:05.400Z,71.44
2023-10-09T06:44:18.951Z,71.56
2023-10-09T06:47:25.333Z,71.66
2023-10-09T06:50:48.317Z,71.52
2023-10-09T06:53:55.208Z,71.32
2023-10-09T06:57:14.329Z,71.26
2023-10-09T07:00:36.211Z,71.67
2023-10-09T07:03:53.519Z,71.62
2023-10-09T07:06:58.137Z,71.62
2023-10-09T07:10:27.246Z,71.74
2023-10-09T07:13:30.881Z,71.50
2023-10-09T07:16:40.661Z,71.49
2023-10-09T07:19:44.788Z,71.51
2023-10-09T07:23:10.884Z,71.72
2023-10-09T07:26:19.928Z,71.63
2023-10-09T07:29:23.201Z,71.57
2023-10-09T07:32:28.758Z,71.35
2023-10-09T07:35:44.448Z,71.10
2023-10-09T07:38:56.404Z,71.01
2023-10-09T07:42:16.651Z,71.26
2023-10-09T07:45:19.732Z,71.41
2023-10-09T07:48:27.051Z,71.47
2023-10-09T07:51:33.064Z,71.49
2023-10-09T07:54:51.010Z,71.53
2023-10-09T07:57:54.777Z,71.49
2023-10-09T08:01:08.138Z,71.36
2023-10-09T08:04:15.422Z,71.59
2023-10-09T08:08:05.448Z,71.55
2023-10-09T08:11:02.660Z,71.19
2023-10-09T08:14:08.820Z,71.35
2023-10-09T08:17:31.917Z,71.25
2023-10-09T08:20:57.517Z,71.18
2023-10-09T08:24:06.179Z,71.18
2023-10-09T08:27:49.376Z,71.16
2023-10-09T08:31:04.658Z,71.16
2023-10-09T08:37:16.765Z,71.29
2023-10-09T08:40:21.067Z,71.12
2023-10-09T08:43:24.093Z,71.50
2023-10-09T08:46:28.977Z,71.35
2023-10-09T08:49:36.656Z,71.41
2023-10-09T08:52:40.772Z,71.33
2023-10-09T08:55:45.109Z,71.45
2023-10-09T08:58:48.274Z,71.10
2023-10-09T09:01:53.599Z,70.83
2023-10-09T09:04:56.779Z,70.52
2023-10-09T09:08:00.927Z,70.41
2023-10-09T09:11:16.008Z,70.79
2023-10-09T09:14:23.271Z,70.73
2023-10-09T09:17:34.432Z,70.62
2023-10-09T09:20:47.175Z,70.65
2023-10-09T09:23:58.934Z,70.79
2023-10-09T09:27:32.688Z,70.79
2023-10-09T09:30:36.671Z,70.82
2023-10-09T09:33:43.996Z,70.85
2023-10-09T09:37:00.027Z,70.55
2023-10-09T09:40:16.333Z,70.37
2023-10-09T09:43:23.455Z,70.46
2023-10-09T09:46:37.121Z,70.70
2023-10-09T09:49:43.853Z,70.55
2023-10-09T09:52:48.139Z,70.78
2023-10-09T09:55:57.342Z,70.83
2023-10-09T09:59:07.783Z,70.93
2023-10-09T10:02:22.085Z,70.85
2023-10-09T10:05:30.900Z,70.52
2023-10-09T10:08:34.482Z,70.57
2023-10-09T10:11:47.292Z,70.00
2023-10-09T10:15:00.264Z,70.19
2023-10-09T10:18:06.454Z,70.24
2023-10-09T10:21:17.565Z,70.41
2023-10-09T10:24:29.949Z,70.25
2023-10-09T10:27:46.178Z,70.23
2023-10-09T10:30:52.252Z,70.12
2023-10-09T10:33:56.246Z,69.93
2023-10-09T10:36:59.614Z,69.76
2023-10-09T10:40:04.057Z,69.95
2023-10-09T10:43:33.005Z,70.01
2023-10-09T10:46:45.593Z,69.59
2023-10-09T10:49:59.822Z,69.47
2023-10-09T10:53:16.935Z,69.39
2023-10-09T10:56:20.213Z,69.23
2023-10-09T10:59:29.556Z,69.34
2023-10-09T11:02:34.775Z,69.03
2023-10-09T11:05:41.035Z,69.25
2023-10-09T11:08:56.084Z,68.74
2023-10-09T11:12:23.629Z,68.70
2023-10-09T11:15:47.805Z,68.16
2023-10-09T11:18:51.011Z,68.27
2023-10-09T11:22:20.361Z,68.27
2023-10-09T11:25:26.693Z,68.21
2023-10-09T11:28:49.833Z,68.12
2023-10-09T11:32:04.914Z,68.30
2023-10-09T11:35:15.895Z,68.25
2023-10-09T11:38:25.504Z,67.80
2023-10-09T11:41:35.308Z,68.17
2023-10-09T11:44:46.821Z,68.18
2023-10-09T11:48:01.116Z,67.35
2023-10-09T11:51:04.332Z,66.96
2023-10-09T11:54:09.901Z,66.88
2023-10-09T11:57:12.823Z,67.04
2023-10-09T12:00:30.081Z,66.45
2023-10-09T12:03:34.525Z,65.94
2023-10-09T12:06:38.060Z,65.94
2023-10-09T12:09:41.382Z,65.81
2023-10-09T12:12:47.773Z,65.86
2023-10-09T12:15:53.306Z,65.59
2023-10-09T12:18:56.350Z,65.83
2023-10-09T12:22:01.483Z,64.94
2023-10-09T12:25:10.457Z,64.86
2023-10-09T12:28:13.812Z,65.29
2023-10-09T12:31:20.995Z,65.28
2023-10-09T12:34:27.762Z,65.04
2023-10-09T12:37:32.640Z,65.14
2023-10-09T12:40:37.200Z,64.58
2023-10-09T12:43:40.247Z,64.15
2023-10-09T12:46:48.831Z,64.05
2023-10-09T12:49:55.305Z,63.97
2023-10-09T12:53:08.589Z,63.72
2023-10-09T12:56:13.363Z,63.35
2023-10-09T12:59:16.739Z,63.33
2023-10-09T13:02:30.145Z,63.40
2023-10-09T13:05:33.673Z,62.86
2023-10-09T13:08:36.579Z,62.76
2023-10-09T13:11:41.708Z,62.72
2023-10-09T13:14:44.877Z,63.03
2023-10-09T13:17:48.695Z,63.11
2023-10-09T13:20:51.680Z,62.52
2023-10-09T13:23:58.822Z,62.08
2023-10-09T13:27:05.585Z,61.91
2023-10-09T13:30:10.954Z,62.03
2023-10-09T13:33:18.395Z,61.79
2023-10-09T13:36:37.491Z,61.60
2023-10-09T13:39:53.182Z,62.07
2023-10-09T13:43:02.906Z,61.26
2023-10-09T13:46:05.859Z,60.68
2023-10-09T13:49:13.338Z,61.81
2023-10-09T13:52:19.511Z,61.78
2023-10-09T13:55:22.422Z,61.59
2023-10-09T13:58:25.461Z,61.06
2023-10-09T14:01:28.606Z,61.09
2023-10-09T14:04:31.637Z,60.86
2023-10-09T14:07:36.117Z,60.93
2023-10-09T14:10:40.220Z,60.19
2023-10-09T14:13:43.824Z,60.40
2023-10-09T14:16:47.768Z,60.39
2023-10-09T14:19:52.601Z,60.56
2023-10-09T14:22:55.678Z,60.87
2023-10-09T14:26:03.174Z,61.03
2023-10-09T14:29:07.992Z,61.22
2023-10-09T14:32:14.372Z,61.46
2023-10-09T14:35:17.413Z,61.50
2023-10-09T14:38:27.972Z,61.24
2023-10-09T14:41:34.460Z,61.32
2023-10-09T14:44:39.446Z,61.54
2023-10-09T14:47:43.416Z,61.68
2023-10-09T14:50:50.593Z,61.72
2023-10-09T14:53:58.605Z,61.28
2023-10-09T14:57:01.822Z,61.58
2023-10-09T15:00:14.921Z,61.89
2023-10-09T15:03:21.173Z,62.63
2023-10-09T15:06:31.550Z,62.91
2023-10-09T15:09:37.703Z,63.12
2023-10-09T15:12:43.955Z,63.35
2023-10-09T15:15:52.663Z,63.68
2023-10-09T15:18:58.485Z,63.79
2023-10-09T15:22:11.118Z,63.91
2023-10-09T15:25:16.162Z,63.80
2023-10-09T15:28:23.960Z,64.01
2023-10-09T15:31:28.584Z,64.28
2023-10-09T15:34:32.723Z,63.82
2023-10-09T15:37:35.573Z,64.41
2023-10-09T15:40:40.315Z,64.62
2023-10-09T15:43:45.417Z,65.06
2023-10-09T15:46:48.458Z,65.22
2023-10-09T15:49:53.947Z,65.42
2023-10-09T15:52:56.974Z,65.38
2023-10-09T15:56:02.376Z,65.55
2023-10-09T15:59:06.749Z,65.62
2023-10-09T16:02:09.742Z,65.83
2023-10-09T16:05:13.231Z,66.05
2023-10-09T16:08:16.452Z,66.14
2023-10-09T16:11:26.478Z,66.44
2023-10-09T16:14:29.440Z,66.53
2023-10-09T16:17:33.634Z,66.94
2023-10-09T16:20:38.547Z,67.18
2023-10-09T16:23:43.335Z,67.27
2023-10-09T16:26:52.254Z,67.61
2023-10-09T16:29:55.807Z,67.78
2023-10-09T16:32:58.988Z,67.81
2023-10-09T16:36:02.026Z,68.07
2023-10-09T16:39:05.379Z,68.46
2023-10-09T16:42:10.890Z,68.44
2023-10-09T16:45:17.182Z,68.70
2023-10-09T16:48:20.247Z,68.70
2023-10-09T16:51:23.270Z,68.71
2023-10-09T16:54:27.770Z,68.56
2023-10-09T16:57:30.839Z,68.74
2023-10-09T17:00:36.652Z,68.83
2023-10-09T17:03:43.762Z,69.06
2023-10-09T17:06:52.489Z,69.09
2023-10-09T17:09:57.393Z,69.25
2023-10-09T17:13:01.859Z,69.41
2023-10-09T17:16:04.806Z,69.56
2023-10-09T17:19:08.019Z,69.79
2023-10-09T17:22:13.598Z,69.77
2023-10-09T17:25:18.002Z,69.93
2023-10-09T17:28:20.890Z,70.03
2023-10-09T17:31:28.345Z,70.18
2023-10-09T17:34:34.994Z,70.58
2023-10-09T17:37:40.063Z,70.79
2023-10-09T17:40:52.967Z,70.86
2023-10-09T17:43:59.141Z,71.21
2023-10-09T17:47:02.230Z,71.66
2023-10-09T17:50:07.319Z,71.60
2023-10-09T17:53:11.383Z,72.02
2023-10-09T17:56:19.630Z,71.94
2023-10-09T17:59:23.100Z,71.78
2023-10-09T18:02:29.208Z,71.84
2023-10-09T18:05:34.473Z,72.05
2023-10-09T18:08:37.609Z,72.07
2023-10-09T18:11:40.913Z,72.10
2023-10-09T18:14:44.585Z,72.29
2023-10-09T18:17:47.802Z,72.56
2023-10-09T18:20:50.717Z,72.59
2023-10-09T18:23:57.062Z,72.82
2023-10-09T18:26:59.905Z,73.02
2023-10-09T18:30:02.871Z,73.39
2023-10-09T18:33:06.261Z,73.46
2023-10-09T18:36:10.187Z,73.40
2023-10-09T18:39:13.945Z,73.50
2023-10-09T18:42:17.155Z,73.47
2023-10-09T18:45:19.958Z,73.70
2023-10-09T18:48:29.030Z,73.56
2023-10-09T18:51:33.653Z,73.47
2023-10-09T18:54:37.237Z,73.75
2023-10-09T18:57:41.322Z,74.13
2023-10-09T19:00:50.143Z,73.73
2023-10-09T19:03:54.576Z,73.72
2023-10-09T19:06:59.198Z,73.79
2023-10-09T19:10:02.795Z,73.81
2023-10-09T19:13:11.156Z,73.54
2023-10-09T19:16:14.150Z,73.57
2023-10-09T19:19:17.174Z,73.44
2023-10-09T19:22:21.171Z,73.23
2023-10-09T19:25:28.589Z,73.40
2023-10-09T19:28:31.624Z,73.68
2023-10-09T19:31:34.467Z,74.10
2023-10-09T19:34:38.129Z,73.98
2023-10-09T19:37:43.381Z,73.84
2023-10-09T19:40:53.379Z,73.97
2023-10-09T19:43:56.398Z,74.01
2023-10-09T19:46:59.392Z,74.18
2023-10-09T19:50:04.027Z,74.51
2023-10-09T19:53:06.873Z,74.85
2023-10-09T19:56:11.743Z,74.81
2023-10-09T19:59:15.984Z,74.94
2023-10-09T20:02:19.175Z,74.98
2023-10-09T20:05:23.969Z,75.36
2023-10-09T20:08:28.878Z,75.00
2023-10-09T20:11:32.485Z,75.34
2023-10-09T20:14:35.390Z,75.44
2023-10-09T20:17:38.342Z,76.21
2023-10-09T20:20:47.587Z,75.68
2023-10-09T20:23:50.457Z,75.44
2023-10-09T20:26:53.294Z,75.69
2023-10-09T20:29:57.451Z,75.83
2023-10-09T20:33:00.754Z,75.80
2023-10-09T20:36:13.802Z,75.85
2023-10-09T20:39:17.702Z,75.85
2023-10-09T20:42:22.936Z,76.05
2023-10-09T20:45:26.017Z,76.35
2023-10-09T20:48:28.824Z,76.71
2023-10-09T20:51:42.552Z,77.02
2023-10-09T20:54:53.733Z,77.17
2023-10-09T20:57:58.439Z,76.72
2023-10-09T21:01:12.906Z,76.25
2023-10-09T21:04:15.896Z,76.08
2023-10-09T21:07:19.175Z,76.09
2023-10-09T21:10:23.079Z,76.16
2023-10-09T21:13:27.819Z,76.19
2023-10-09T21:16:30.679Z,76.21
2023-10-09T21:19:33.690Z,76.53
2023-10-09T21:22:38.910Z,76.81
2023-10-09T21:25:41.814Z,76.47
2023-10-09T21:28:45.423Z,76.52
2023-10-09T21:31:48.351Z,76.87
2023-10-09T21:34:51.340Z,76.69
2023-10-09T21:38:01.254Z,76.51
2023-10-09T21:41:18.211Z,76.66
2023-10-09T21:44:21.729Z,77.03
2023-10-09T21:47:24.824Z,76.86
2023-10-09T21:50:29.619Z,76.44
2023-10-09T21:53:32.483Z,76.57
2023-10-09T21:56:35.794Z,76.40
2023-10-09T21:59:38.659Z,76.35
2023-10-09T22:02:51.048Z,76.42
2023-10-09T22:05:57.162Z,76.73
2023-10-09T22:09:00.210Z,76.52
2023-10-09T22:12:03.152Z,76.43
2023-10-09T22:15:06.817Z,76.72
2023-10-09T22:18:12.569Z,76.88
2023-10-09T22:21:17.314Z,76.72
2023-10-09T22:24:22.081Z,77.00
2023-10-09T22:27:25.166Z,77.04
2023-10-09T22:30:35.028Z,77.14
2023-10-09T22:33:47.030Z,77.14
2023-10-09T22:36:55.009Z,77.14
2023-10-09T22:40:02.230Z,77.24
2023-10-09T22:43:15.775Z,77.29
2023-10-09T22:46:20.750Z,77.38
2023-10-09T22:49:26.264Z,77.33
2023-10-09T22:52:35.844Z,77.27
2023-10-09T22:55:45.384Z,77.33
2023-10-09T22:58:52.507Z,77.29
2023-10-09T23:02:01.796Z,77.44
2023-10-09T23:05:05.825Z,77.53
2023-10-09T23:08:17.787Z,77.59
2023-10-09T23:11:26.764Z,77.31
2023-10-09T23:14:29.840Z,77.47
2023-10-09T23:17:49.415Z,77.53
2023-10-09T23:21:12.458Z,77.56
2023-10-09T23:24:27.087Z,77.65
2023-10-09T23:27:39.462Z,77.51
2023-10-09T23:30:45.733Z,77.42
2023-10-09T23:33:58.372Z,77.42
2023-10-09T23:37:05.172Z,77.39
2023-10-09T23:40:17.735Z,77.66
2023-10-09T23:43:29.398Z,77.67
2023-10-09T23:46:37.331Z,78.22
2023-10-09T23:49:40.291Z,78.02
2023-10-09T23:52:45.727Z,77.91
2023-10-09T23:55:53.006Z,77.95
2023-10-09T23:58:56.585Z,77.91
